Terminal Aerodrome Forecast
Issued by NWS San Angelo, TX

Home | Current Version | Previous Version | Text Only | Print | Product List | Glossary On
Versions: 1 2 3 4 5 6 7 8 9 10 11 12 13 14 15 16 17
000
FTUS44 KSJT 071700
TAFABI
TAF
KABI 071732Z 0718/0818 17010KT 6SM -TSRA SCT009 BKN035CB
      TEMPO 0718/0721 3SM -TSRA BKN012CB
     FM080000 02007KT 5SM SHRA VCTS OVC025CB
     FM080300 VRB06KT 4SM SHRA VCTS OVC015CB
     FM081400 VRB05KT P6SM BKN025=

USA.gov is the U.S. government's official web portal to all federal, state and local government web resources and services.